Terminal Aerodrome Forecast
Issued by NWS Tampa Bay Area, FL

Home | Current Version | Previous Version | Text Only | Print | Product List | Glossary On
Versions: 1 2 3 4 5 6 7 8 9 10 11 12 13 14 15 16 17 18 19 20 21 22 23 24 25 26 27 28
000
FTUS42 KTBW 060547
TAFTPA
TAF
KTPA 060547Z 0606/0706 17010KT P6SM VCSH FEW040 SCT100 OVC250
     FM061200 20013G21KT 6SM -SHRA VCTS SCT015CB OVC030
      TEMPO 0612/0616 VRB20G25KT 3SM TSRA BKN015CB
     FM061600 23014G22KT 6SM SHRA VCTS SCT015CB OVC025
     FM062000 24012G18KT P6SM -SHRA SCT015 OVC025
     FM070100 27006KT P6SM SCT015 BKN030 OVC050=

USA.gov is the U.S. government's official web portal to all federal, state and local government web resources and services.